sensor_id;sensor_type;location;lat;lon;timestamp;temperature;humidity
30174;DHT22;16985;50.814;8.530;2022-09-03T00:02:41;13.90;70.70
30174;DHT22;16985;50.814;8.530;2022-09-03T00:05:24;13.80;71.00
30174;DHT22;16985;50.814;8.530;2022-09-03T00:08:19;13.80;71.00
30174;DHT22;16985;50.814;8.530;2022-09-03T00:11:19;13.80;70.70
30174;DHT22;16985;50.814;8.530;2022-09-03T00:14:05;13.80;71.20
30174;DHT22;16985;50.814;8.530;2022-09-03T00:16:59;13.70;71.30
30174;DHT22;16985;50.814;8.530;2022-09-03T00:19:32;13.70;71.50
30174;DHT22;16985;50.814;8.530;2022-09-03T00:22:11;13.60;71.80
30174;DHT22;16985;50.814;8.530;2022-09-03T00:24:41;13.50;72.10
30174;DHT22;16985;50.814;8.530;2022-09-03T00:27:19;13.50;72.60
30174;DHT22;16985;50.814;8.530;2022-09-03T00:29:57;13.50;72.10
30174;DHT22;16985;50.814;8.530;2022-09-03T00:32:52;13.60;71.80
30174;DHT22;16985;50.814;8.530;2022-09-03T00:38:12;13.50;71.80
30174;DHT22;16985;50.814;8.530;2022-09-03T00:41:01;13.50;72.00
30174;DHT22;16985;50.814;8.530;2022-09-03T00:54:57;13.20;72.80
30174;DHT22;16985;50.814;8.530;2022-09-03T01:00:30;13.10;73.30
30174;DHT22;16985;50.814;8.530;2022-09-03T01:03:11;13.00;73.60
30174;DHT22;16985;50.814;8.530;2022-09-03T01:05:58;12.90;73.70
30174;DHT22;16985;50.814;8.530;2022-09-03T01:08:46;12.90;73.90
30174;DHT22;16985;50.814;8.530;2022-09-03T01:11:34;12.90;73.90
30174;DHT22;16985;50.814;8.530;2022-09-03T01:19:55;12.80;74.30
30174;DHT22;16985;50.814;8.530;2022-09-03T01:30:44;12.60;75.20
30174;DHT22;16985;50.814;8.530;2022-09-03T01:33:23;12.50;75.40
30174;DHT22;16985;50.814;8.530;2022-09-03T01:36:06;12.60;75.10
30174;DHT22;16985;50.814;8.530;2022-09-03T01:44:59;12.40;76.40
30174;DHT22;16985;50.814;8.530;2022-09-03T01:50:43;12.40;75.80
30174;DHT22;16985;50.814;8.530;2022-09-03T01:56:16;12.40;75.80
30174;DHT22;16985;50.814;8.530;2022-09-03T01:58:53;12.50;75.80
30174;DHT22;16985;50.814;8.530;2022-09-03T02:01:40;12.40;76.20
30174;DHT22;16985;50.814;8.530;2022-09-03T02:04:21;12.30;76.30
30174;DHT22;16985;50.814;8.530;2022-09-03T02:06:49;12.30;76.30
30174;DHT22;16985;50.814;8.530;2022-09-03T02:09:17;12.30;76.50
30174;DHT22;16985;50.814;8.530;2022-09-03T02:11:45;12.20;76.60
30174;DHT22;16985;50.814;8.530;2022-09-03T02:14:16;12.20;76.90
30174;DHT22;16985;50.814;8.530;2022-09-03T02:16:42;12.10;77.50
30174;DHT22;16985;50.814;8.530;2022-09-03T02:19:14;12.10;77.60
30174;DHT22;16985;50.814;8.530;2022-09-03T02:21:51;12.00;77.50
30174;DHT22;16985;50.814;8.530;2022-09-03T02:24:18;12.00;78.10
30174;DHT22;16985;50.814;8.530;2022-09-03T02:26:44;12.00;78.20
30174;DHT22;16985;50.814;8.530;2022-09-03T02:29:12;12.00;78.20
30174;DHT22;16985;50.814;8.530;2022-09-03T02:31:39;12.00;78.20
30174;DHT22;16985;50.814;8.530;2022-09-03T02:34:05;12.00;78.10
30174;DHT22;16985;50.814;8.530;2022-09-03T02:36:33;12.00;78.10
30174;DHT22;16985;50.814;8.530;2022-09-03T02:39:00;11.90;78.40
30174;DHT22;16985;50.814;8.530;2022-09-03T02:41:26;11.90;78.20
30174;DHT22;16985;50.814;8.530;2022-09-03T02:44:01;11.90;78.20
30174;DHT22;16985;50.814;8.530;2022-09-03T02:46:42;11.90;78.40
30174;DHT22;16985;50.814;8.530;2022-09-03T02:49:10;11.80;78.70
30174;DHT22;16985;50.814;8.530;2022-09-03T02:51:39;11.70;79.10
30174;DHT22;16985;50.814;8.530;2022-09-03T02:54:06;11.70;78.90
30174;DHT22;16985;50.814;8.530;2022-09-03T02:56:33;11.70;79.00
30174;DHT22;16985;50.814;8.530;2022-09-03T02:58:59;11.70;78.80
30174;DHT22;16985;50.814;8.530;2022-09-03T03:01:26;11.70;79.00
30174;DHT22;16985;50.814;8.530;2022-09-03T03:03:52;11.70;79.30
30174;DHT22;16985;50.814;8.530;2022-09-03T03:06:18;11.60;79.70
30174;DHT22;16985;50.814;8.530;2022-09-03T03:08:45;11.60;79.70
30174;DHT22;16985;50.814;8.530;2022-09-03T03:11:12;11.60;80.70
30174;DHT22;16985;50.814;8.530;2022-09-03T03:13:40;11.50;80.40
30174;DHT22;16985;50.814;8.530;2022-09-03T03:16:06;11.50;80.30
30174;DHT22;16985;50.814;8.530;2022-09-03T03:18:31;11.50;80.50
30174;DHT22;16985;50.814;8.530;2022-09-03T03:21:04;11.50;80.70
30174;DHT22;16985;50.814;8.530;2022-09-03T03:23:32;11.50;80.20
30174;DHT22;16985;50.814;8.530;2022-09-03T03:26:04;11.50;80.30
30174;DHT22;16985;50.814;8.530;2022-09-03T03:28:31;11.40;80.10
30174;DHT22;16985;50.814;8.530;2022-09-03T03:31:10;11.50;80.20
30174;DHT22;16985;50.814;8.530;2022-09-03T03:33:37;11.40;80.00
30174;DHT22;16985;50.814;8.530;2022-09-03T03:36:11;11.50;79.80
30174;DHT22;16985;50.814;8.530;2022-09-03T03:38:39;11.40;80.10
30174;DHT22;16985;50.814;8.530;2022-09-03T03:41:07;11.40;80.10
30174;DHT22;16985;50.814;8.530;2022-09-03T03:43:37;11.40;80.40
30174;DHT22;16985;50.814;8.530;2022-09-03T03:46:03;11.30;80.60
30174;DHT22;16985;50.814;8.530;2022-09-03T03:48:30;11.30;81.10
30174;DHT22;16985;50.814;8.530;2022-09-03T03:51:04;11.20;80.70
30174;DHT22;16985;50.814;8.530;2022-09-03T03:53:33;11.30;80.80
30174;DHT22;16985;50.814;8.530;2022-09-03T03:56:02;11.20;81.30
30174;DHT22;16985;50.814;8.530;2022-09-03T03:58:29;11.20;81.40
30174;DHT22;16985;50.814;8.530;2022-09-03T04:03:30;11.10;82.00
30174;DHT22;16985;50.814;8.530;2022-09-03T04:05:56;11.10;81.90
30174;DHT22;16985;50.814;8.530;2022-09-03T04:08:24;11.10;82.30
30174;DHT22;16985;50.814;8.530;2022-09-03T04:10:50;11.10;81.80
30174;DHT22;16985;50.814;8.530;2022-09-03T04:13:16;11.10;81.60
30174;DHT22;16985;50.814;8.530;2022-09-03T04:15:42;11.00;81.80
30174;DHT22;16985;50.814;8.530;2022-09-03T04:18:08;11.00;81.90
30174;DHT22;16985;50.814;8.530;2022-09-03T04:20:37;11.00;81.90
30174;DHT22;16985;50.814;8.530;2022-09-03T04:23:04;11.10;81.60
30174;DHT22;16985;50.814;8.530;2022-09-03T04:25:30;11.10;81.50
30174;DHT22;16985;50.814;8.530;2022-09-03T04:27:56;11.00;81.60
30174;DHT22;16985;50.814;8.530;2022-09-03T04:30:22;11.00;81.80
30174;DHT22;16985;50.814;8.530;2022-09-03T04:32:51;11.00;82.20
30174;DHT22;16985;50.814;8.530;2022-09-03T04:35:26;11.00;81.90
30174;DHT22;16985;50.814;8.530;2022-09-03T04:37:58;10.90;82.30
30174;DHT22;16985;50.814;8.530;2022-09-03T04:40:23;10.90;82.80
30174;DHT22;16985;50.814;8.530;2022-09-03T04:42:49;10.80;83.40
30174;DHT22;16985;50.814;8.530;2022-09-03T04:45:15;10.80;83.30
30174;DHT22;16985;50.814;8.530;2022-09-03T04:47:44;10.80;83.40
30174;DHT22;16985;50.814;8.530;2022-09-03T04:50:20;10.80;83.80
30174;DHT22;16985;50.814;8.530;2022-09-03T04:53:02;10.70;84.00
30174;DHT22;16985;50.814;8.530;2022-09-03T04:55:33;10.70;83.90
30174;DHT22;16985;50.814;8.530;2022-09-03T04:58:00;10.70;84.10
30174;DHT22;16985;50.814;8.530;2022-09-03T05:00:26;10.70;84.50
30174;DHT22;16985;50.814;8.530;2022-09-03T05:02:52;10.50;84.00
30174;DHT22;16985;50.814;8.530;2022-09-03T05:05:18;10.70;84.10
30174;DHT22;16985;50.814;8.530;2022-09-03T05:07:44;10.70;83.70
30174;DHT22;16985;50.814;8.530;2022-09-03T05:10:11;10.70;84.00
30174;DHT22;16985;50.814;8.530;2022-09-03T05:12:56;10.70;83.90
30174;DHT22;16985;50.814;8.530;2022-09-03T05:15:26;10.70;83.80
30174;DHT22;16985;50.814;8.530;2022-09-03T05:17:59;10.70;83.90
30174;DHT22;16985;50.814;8.530;2022-09-03T05:20:29;10.70;84.50
30174;DHT22;16985;50.814;8.530;2022-09-03T05:22:56;10.80;83.60
30174;DHT22;16985;50.814;8.530;2022-09-03T05:25:23;10.80;83.60
30174;DHT22;16985;50.814;8.530;2022-09-03T05:27:49;10.80;83.80
30174;DHT22;16985;50.814;8.530;2022-09-03T05:30:14;10.80;84.00
30174;DHT22;16985;50.814;8.530;2022-09-03T05:32:41;10.80;84.00
30174;DHT22;16985;50.814;8.530;2022-09-03T05:35:08;10.90;84.10
30174;DHT22;16985;50.814;8.530;2022-09-03T05:37:35;10.80;84.10
30174;DHT22;16985;50.814;8.530;2022-09-03T05:40:02;10.90;84.30
30174;DHT22;16985;50.814;8.530;2022-09-03T05:42:28;10.90;84.50
30174;DHT22;16985;50.814;8.530;2022-09-03T05:44:56;10.90;84.50
30174;DHT22;16985;50.814;8.530;2022-09-03T05:47:22;10.90;84.70
30174;DHT22;16985;50.814;8.530;2022-09-03T05:49:48;10.90;84.80
30174;DHT22;16985;50.814;8.530;2022-09-03T05:52:14;10.90;84.80
30174;DHT22;16985;50.814;8.530;2022-09-03T05:54:41;11.00;85.00
30174;DHT22;16985;50.814;8.530;2022-09-03T05:57:06;11.00;85.40
30174;DHT22;16985;50.814;8.530;2022-09-03T05:59:32;11.00;85.30
30174;DHT22;16985;50.814;8.530;2022-09-03T06:01:58;11.00;85.40
30174;DHT22;16985;50.814;8.530;2022-09-03T06:04:24;11.00;85.70
30174;DHT22;16985;50.814;8.530;2022-09-03T06:06:49;11.00;85.80
30174;DHT22;16985;50.814;8.530;2022-09-03T06:09:19;11.10;85.80
30174;DHT22;16985;50.814;8.530;2022-09-03T06:11:46;11.60;87.30
30174;DHT22;16985;50.814;8.530;2022-09-03T06:14:14;11.10;86.00
30174;DHT22;16985;50.814;8.530;2022-09-03T06:16:43;11.20;86.30
30174;DHT22;16985;50.814;8.530;2022-09-03T06:19:10;11.20;86.30
30174;DHT22;16985;50.814;8.530;2022-09-03T06:21:40;11.30;86.60
30174;DHT22;16985;50.814;8.530;2022-09-03T06:24:09;11.30;86.30
30174;DHT22;16985;50.814;8.530;2022-09-03T06:26:39;11.40;86.90
30174;DHT22;16985;50.814;8.530;2022-09-03T06:29:05;11.40;86.60
30174;DHT22;16985;50.814;8.530;2022-09-03T06:31:31;11.50;86.90
30174;DHT22;16985;50.814;8.530;2022-09-03T06:33:57;11.50;86.70
30174;DHT22;16985;50.814;8.530;2022-09-03T06:36:23;11.60;86.80
30174;DHT22;16985;50.814;8.530;2022-09-03T06:38:52;11.70;86.70
30174;DHT22;16985;50.814;8.530;2022-09-03T06:41:20;11.70;86.70
30174;DHT22;16985;50.814;8.530;2022-09-03T06:43:52;11.70;86.80
30174;DHT22;16985;50.814;8.530;2022-09-03T06:46:22;11.80;86.80
30174;DHT22;16985;50.814;8.530;2022-09-03T06:48:48;11.90;86.80
30174;DHT22;16985;50.814;8.530;2022-09-03T06:51:20;12.00;88.00
30174;DHT22;16985;50.814;8.530;2022-09-03T06:53:49;12.00;89.90
30174;DHT22;16985;50.814;8.530;2022-09-03T06:56:21;12.20;90.40
30174;DHT22;16985;50.814;8.530;2022-09-03T06:58:52;12.30;90.50
30174;DHT22;16985;50.814;8.530;2022-09-03T07:01:22;12.30;90.70
30174;DHT22;16985;50.814;8.530;2022-09-03T07:03:54;12.40;90.50
30174;DHT22;16985;50.814;8.530;2022-09-03T07:06:23;12.50;90.40
30174;DHT22;16985;50.814;8.530;2022-09-03T07:08:50;12.50;90.10
30174;DHT22;16985;50.814;8.530;2022-09-03T07:11:18;12.60;89.90
30174;DHT22;16985;50.814;8.530;2022-09-03T07:13:49;12.70;89.50
30174;DHT22;16985;50.814;8.530;2022-09-03T07:16:20;12.80;89.50
30174;DHT22;16985;50.814;8.530;2022-09-03T07:18:48;12.90;89.50
30174;DHT22;16985;50.814;8.530;2022-09-03T07:21:23;13.00;89.60
30174;DHT22;16985;50.814;8.530;2022-09-03T07:23:50;13.00;89.80
30174;DHT22;16985;50.814;8.530;2022-09-03T07:26:20;13.20;89.80
30174;DHT22;16985;50.814;8.530;2022-09-03T07:28:48;13.20;89.50
30174;DHT22;16985;50.814;8.530;2022-09-03T07:34:00;13.40;89.70
30174;DHT22;16985;50.814;8.530;2022-09-03T07:36:35;13.50;89.20
30174;DHT22;16985;50.814;8.530;2022-09-03T07:39:15;13.60;88.60
30174;DHT22;16985;50.814;8.530;2022-09-03T07:41:42;13.70;88.20
30174;DHT22;16985;50.814;8.530;2022-09-03T07:44:14;13.80;87.80
30174;DHT22;16985;50.814;8.530;2022-09-03T07:46:44;13.90;87.60
30174;DHT22;16985;50.814;8.530;2022-09-03T07:49:11;13.90;87.00
30174;DHT22;16985;50.814;8.530;2022-09-03T07:51:38;14.00;86.50
30174;DHT22;16985;50.814;8.530;2022-09-03T07:54:07;13.90;86.10
30174;DHT22;16985;50.814;8.530;2022-09-03T07:56:35;14.20;85.60
30174;DHT22;16985;50.814;8.530;2022-09-03T07:59:03;14.30;85.10
30174;DHT22;16985;50.814;8.530;2022-09-03T08:01:29;14.30;84.70
30174;DHT22;16985;50.814;8.530;2022-09-03T08:03:57;14.40;84.50
30174;DHT22;16985;50.814;8.530;2022-09-03T08:06:25;14.50;84.30
30174;DHT22;16985;50.814;8.530;2022-09-03T08:08:56;14.50;84.10
30174;DHT22;16985;50.814;8.530;2022-09-03T08:11:25;14.60;83.90
30174;DHT22;16985;50.814;8.530;2022-09-03T08:13:56;14.70;83.70
30174;DHT22;16985;50.814;8.530;2022-09-03T08:16:29;14.80;83.00
30174;DHT22;16985;50.814;8.530;2022-09-03T08:18:56;14.80;82.30
30174;DHT22;16985;50.814;8.530;2022-09-03T08:21:22;14.90;81.40
30174;DHT22;16985;50.814;8.530;2022-09-03T08:23:51;15.00;80.90
30174;DHT22;16985;50.814;8.530;2022-09-03T08:26:20;15.00;81.10
30174;DHT22;16985;50.814;8.530;2022-09-03T08:28:46;15.10;80.00
30174;DHT22;16985;50.814;8.530;2022-09-03T08:31:18;15.20;79.60
30174;DHT22;16985;50.814;8.530;2022-09-03T08:33:47;15.20;79.40
30174;DHT22;16985;50.814;8.530;2022-09-03T08:36:23;15.20;79.20
30174;DHT22;16985;50.814;8.530;2022-09-03T08:38:51;15.20;79.10
30174;DHT22;16985;50.814;8.530;2022-09-03T08:44:19;15.30;79.40
30174;DHT22;16985;50.814;8.530;2022-09-03T08:52:55;15.40;78.40
30174;DHT22;16985;50.814;8.530;2022-09-03T08:58:26;15.50;78.00
30174;DHT22;16985;50.814;8.530;2022-09-03T09:01:52;15.50;77.80
30174;DHT22;16985;50.814;8.530;2022-09-03T09:09:59;15.60;77.60
30174;DHT22;16985;50.814;8.530;2022-09-03T09:13:04;15.70;77.70
30174;DHT22;16985;50.814;8.530;2022-09-03T09:21:16;15.90;77.20
30174;DHT22;16985;50.814;8.530;2022-09-03T09:23:49;15.90;77.80
30174;DHT22;16985;50.814;8.530;2022-09-03T09:26:17;16.00;76.90
30174;DHT22;16985;50.814;8.530;2022-09-03T09:28:45;16.10;76.80
30174;DHT22;16985;50.814;8.530;2022-09-03T09:31:14;16.20;76.70
30174;DHT22;16985;50.814;8.530;2022-09-03T09:33:41;16.20;76.50
30174;DHT22;16985;50.814;8.530;2022-09-03T09:36:09;16.40;76.40
30174;DHT22;16985;50.814;8.530;2022-09-03T09:38:40;16.50;76.30
30174;DHT22;16985;50.814;8.530;2022-09-03T09:41:15;16.60;76.10
30174;DHT22;16985;50.814;8.530;2022-09-03T09:43:42;16.70;75.90
30174;DHT22;16985;50.814;8.530;2022-09-03T09:46:21;16.70;75.70
30174;DHT22;16985;50.814;8.530;2022-09-03T09:48:54;16.80;75.40
30174;DHT22;16985;50.814;8.530;2022-09-03T09:51:29;16.90;75.10
30174;DHT22;16985;50.814;8.530;2022-09-03T09:54:23;17.00;75.00
30174;DHT22;16985;50.814;8.530;2022-09-03T09:57:04;17.10;74.80
30174;DHT22;16985;50.814;8.530;2022-09-03T09:59:32;17.10;74.50
30174;DHT22;16985;50.814;8.530;2022-09-03T10:02:13;17.20;74.30
30174;DHT22;16985;50.814;8.530;2022-09-03T10:04:59;17.20;74.00
30174;DHT22;16985;50.814;8.530;2022-09-03T10:07:29;17.30;74.40
30174;DHT22;16985;50.814;8.530;2022-09-03T10:10:03;17.40;73.50
30174;DHT22;16985;50.814;8.530;2022-09-03T10:12:40;17.40;73.30
30174;DHT22;16985;50.814;8.530;2022-09-03T10:21:04;17.50;73.10
30174;DHT22;16985;50.814;8.530;2022-09-03T10:23:58;17.60;73.10
30174;DHT22;16985;50.814;8.530;2022-09-03T10:26:57;17.60;72.90
30174;DHT22;16985;50.814;8.530;2022-09-03T10:29:24;17.70;72.90
30174;DHT22;16985;50.814;8.530;2022-09-03T10:32:11;17.70;72.90
30174;DHT22;16985;50.814;8.530;2022-09-03T10:35:15;17.70;72.70
30174;DHT22;16985;50.814;8.530;2022-09-03T10:41:04;17.70;72.30
30174;DHT22;16985;50.814;8.530;2022-09-03T10:46:37;17.70;72.20
30174;DHT22;16985;50.814;8.530;2022-09-03T10:49:28;17.70;72.20
30174;DHT22;16985;50.814;8.530;2022-09-03T10:52:29;17.70;72.20
30174;DHT22;16985;50.814;8.530;2022-09-03T11:00:33;17.70;72.50
30174;DHT22;16985;50.814;8.530;2022-09-03T11:03:42;17.70;72.50
30174;DHT22;16985;50.814;8.530;2022-09-03T11:09:00;17.70;72.50
30174;DHT22;16985;50.814;8.530;2022-09-03T11:11:43;17.70;72.60
30174;DHT22;16985;50.814;8.530;2022-09-03T11:14:14;17.70;72.60
30174;DHT22;16985;50.814;8.530;2022-09-03T11:16:57;17.80;72.80
30174;DHT22;16985;50.814;8.530;2022-09-03T11:19:35;17.80;72.90
30174;DHT22;16985;50.814;8.530;2022-09-03T11:22:06;17.90;72.90
30174;DHT22;16985;50.814;8.530;2022-09-03T11:24:34;17.90;73.00
30174;DHT22;16985;50.814;8.530;2022-09-03T11:27:19;17.90;73.00
30174;DHT22;16985;50.814;8.530;2022-09-03T11:30:04;17.90;73.00
30174;DHT22;16985;50.814;8.530;2022-09-03T11:35:48;18.10;73.00
30174;DHT22;16985;50.814;8.530;2022-09-03T11:38:25;18.10;72.90
30174;DHT22;16985;50.814;8.530;2022-09-03T11:40:59;18.20;72.80
30174;DHT22;16985;50.814;8.530;2022-09-03T11:43:32;18.30;72.80
30174;DHT22;16985;50.814;8.530;2022-09-03T11:48:51;18.40;72.50
30174;DHT22;16985;50.814;8.530;2022-09-03T11:51:32;18.40;72.30
30174;DHT22;16985;50.814;8.530;2022-09-03T11:54:03;18.50;72.10
30174;DHT22;16985;50.814;8.530;2022-09-03T11:56:32;18.60;72.10
30174;DHT22;16985;50.814;8.530;2022-09-03T12:01:43;18.80;71.80
30174;DHT22;16985;50.814;8.530;2022-09-03T12:04:15;18.90;71.60
30174;DHT22;16985;50.814;8.530;2022-09-03T12:17:56;19.30;70.50
30174;DHT22;16985;50.814;8.530;2022-09-03T12:20:47;19.40;70.40
30174;DHT22;16985;50.814;8.530;2022-09-03T12:26:17;19.50;70.20
30174;DHT22;16985;50.814;8.530;2022-09-03T12:28:58;19.50;70.10
30174;DHT22;16985;50.814;8.530;2022-09-03T12:31:28;19.60;70.10
30174;DHT22;16985;50.814;8.530;2022-09-03T12:34:02;19.60;70.00
30174;DHT22;16985;50.814;8.530;2022-09-03T12:36:42;19.70;69.70
30174;DHT22;16985;50.814;8.530;2022-09-03T12:39:20;19.70;69.70
30174;DHT22;16985;50.814;8.530;2022-09-03T12:42:03;19.70;69.70
30174;DHT22;16985;50.814;8.530;2022-09-03T12:44:37;19.80;69.50
30174;DHT22;16985;50.814;8.530;2022-09-03T12:47:19;19.80;69.40
30174;DHT22;16985;50.814;8.530;2022-09-03T12:49:56;19.80;69.50
30174;DHT22;16985;50.814;8.530;2022-09-03T12:52:29;19.90;69.70
30174;DHT22;16985;50.814;8.530;2022-09-03T12:55:02;19.90;69.70
30174;DHT22;16985;50.814;8.530;2022-09-03T12:57:42;19.90;69.70
30174;DHT22;16985;50.814;8.530;2022-09-03T13:00:14;20.00;69.60
30174;DHT22;16985;50.814;8.530;2022-09-03T13:02:51;20.00;69.60
30174;DHT22;16985;50.814;8.530;2022-09-03T13:05:29;20.10;69.60
30174;DHT22;16985;50.814;8.530;2022-09-03T13:08:04;20.10;70.30
30174;DHT22;16985;50.814;8.530;2022-09-03T13:10:38;20.20;69.50
30174;DHT22;16985;50.814;8.530;2022-09-03T13:13:25;20.20;69.30
30174;DHT22;16985;50.814;8.530;2022-09-03T13:16:15;20.30;69.30
30174;DHT22;16985;50.814;8.530;2022-09-03T13:25:14;20.60;69.00
30174;DHT22;16985;50.814;8.530;2022-09-03T13:28:06;20.80;69.30
30174;DHT22;16985;50.814;8.530;2022-09-03T13:31:05;21.00;68.80
30174;DHT22;16985;50.814;8.530;2022-09-03T13:33:51;21.20;68.10
30174;DHT22;16985;50.814;8.530;2022-09-03T13:36:36;21.30;67.90
30174;DHT22;16985;50.814;8.530;2022-09-03T13:42:09;21.70;67.40
30174;DHT22;16985;50.814;8.530;2022-09-03T13:44:46;22.00;66.80
30174;DHT22;16985;50.814;8.530;2022-09-03T13:47:49;22.40;66.40
30174;DHT22;16985;50.814;8.530;2022-09-03T13:50:47;22.60;65.60
30174;DHT22;16985;50.814;8.530;2022-09-03T13:53:35;22.90;64.90
30174;DHT22;16985;50.814;8.530;2022-09-03T13:56:42;23.20;63.90
30174;DHT22;16985;50.814;8.530;2022-09-03T14:05:16;23.80;62.60
30174;DHT22;16985;50.814;8.530;2022-09-03T14:10:34;24.10;61.90
30174;DHT22;16985;50.814;8.530;2022-09-03T14:19:10;24.20;60.10
30174;DHT22;16985;50.814;8.530;2022-09-03T14:21:44;24.20;59.70
30174;DHT22;16985;50.814;8.530;2022-09-03T14:27:24;24.00;59.70
30174;DHT22;16985;50.814;8.530;2022-09-03T14:32:56;23.80;60.20
30174;DHT22;16985;50.814;8.530;2022-09-03T14:35:57;23.60;60.60
30174;DHT22;16985;50.814;8.530;2022-09-03T14:39:09;23.50;60.80
30174;DHT22;16985;50.814;8.530;2022-09-03T15:02:13;22.50;63.00
30174;DHT22;16985;50.814;8.530;2022-09-03T15:07:55;22.30;63.50
30174;DHT22;16985;50.814;8.530;2022-09-03T15:16:58;22.10;64.10
30174;DHT22;16985;50.814;8.530;2022-09-03T15:35:24;21.80;65.10
30174;DHT22;16985;50.814;8.530;2022-09-03T15:39:07;21.80;65.20
30174;DHT22;16985;50.814;8.530;2022-09-03T15:41:51;21.80;65.10
30174;DHT22;16985;50.814;8.530;2022-09-03T15:44:20;21.80;65.20
30174;DHT22;16985;50.814;8.530;2022-09-03T15:46:57;21.80;65.20
30174;DHT22;16985;50.814;8.530;2022-09-03T15:49:47;21.80;65.30
30174;DHT22;16985;50.814;8.530;2022-09-03T15:52:36;21.80;65.30
30174;DHT22;16985;50.814;8.530;2022-09-03T15:55:36;21.80;65.30
30174;DHT22;16985;50.814;8.530;2022-09-03T15:58:27;21.80;65.50
30174;DHT22;16985;50.814;8.530;2022-09-03T16:01:03;21.80;65.60
30174;DHT22;16985;50.814;8.530;2022-09-03T16:03:36;21.70;65.80
30174;DHT22;16985;50.814;8.530;2022-09-03T16:06:36;21.70;65.90
30174;DHT22;16985;50.814;8.530;2022-09-03T16:12:13;21.70;66.10
30174;DHT22;16985;50.814;8.530;2022-09-03T16:14:58;21.70;66.40
30174;DHT22;16985;50.814;8.530;2022-09-03T16:20:37;21.70;66.50
30174;DHT22;16985;50.814;8.530;2022-09-03T16:26:03;21.60;66.70
30174;DHT22;16985;50.814;8.530;2022-09-03T16:28:40;21.70;66.70
30174;DHT22;16985;50.814;8.530;2022-09-03T16:36:56;21.70;66.60
30174;DHT22;16985;50.814;8.530;2022-09-03T16:39:54;21.80;66.60
30174;DHT22;16985;50.814;8.530;2022-09-03T16:48:30;21.80;66.30
30174;DHT22;16985;50.814;8.530;2022-09-03T16:57:17;21.70;66.70
30174;DHT22;16985;50.814;8.530;2022-09-03T17:00:05;21.60;66.80
30174;DHT22;16985;50.814;8.530;2022-09-03T17:27:19;21.30;68.10
30174;DHT22;16985;50.814;8.530;2022-09-03T17:30:06;21.30;68.20
30174;DHT22;16985;50.814;8.530;2022-09-03T17:32:57;21.20;68.40
30174;DHT22;16985;50.814;8.530;2022-09-03T17:36:18;21.20;68.60
30174;DHT22;16985;50.814;8.530;2022-09-03T17:41:51;21.10;69.00
30174;DHT22;16985;50.814;8.530;2022-09-03T17:46:56;21.00;69.90
30174;DHT22;16985;50.814;8.530;2022-09-03T17:49:30;21.00;70.20
30174;DHT22;16985;50.814;8.530;2022-09-03T17:52:06;20.90;70.50
30174;DHT22;16985;50.814;8.530;2022-09-03T17:54:50;20.90;70.70
30174;DHT22;16985;50.814;8.530;2022-09-03T17:57:29;20.80;70.90
30174;DHT22;16985;50.814;8.530;2022-09-03T18:00:00;20.70;71.10
30174;DHT22;16985;50.814;8.530;2022-09-03T18:06:31;20.60;71.60
30174;DHT22;16985;50.814;8.530;2022-09-03T18:11:49;20.50;71.50
30174;DHT22;16985;50.814;8.530;2022-09-03T18:17:33;20.40;72.20
30174;DHT22;16985;50.814;8.530;2022-09-03T18:20:09;20.40;71.80
30174;DHT22;16985;50.814;8.530;2022-09-03T18:23:09;20.40;72.30
30174;DHT22;16985;50.814;8.530;2022-09-03T18:26:04;20.30;73.00
30174;DHT22;16985;50.814;8.530;2022-09-03T18:29:13;20.20;73.20
30174;DHT22;16985;50.814;8.530;2022-09-03T18:32:01;20.10;73.30
30174;DHT22;16985;50.814;8.530;2022-09-03T18:34:46;20.10;73.20
30174;DHT22;16985;50.814;8.530;2022-09-03T18:37:30;20.10;73.80
30174;DHT22;16985;50.814;8.530;2022-09-03T18:40:21;20.00;74.00
30174;DHT22;16985;50.814;8.530;2022-09-03T18:43:23;20.00;74.20
30174;DHT22;16985;50.814;8.530;2022-09-03T18:46:33;19.90;74.40
30174;DHT22;16985;50.814;8.530;2022-09-03T18:52:29;19.80;74.30
30174;DHT22;16985;50.814;8.530;2022-09-03T18:58:30;19.60;75.50
30174;DHT22;16985;50.814;8.530;2022-09-03T19:01:39;19.50;75.60
30174;DHT22;16985;50.814;8.530;2022-09-03T19:11:28;19.40;76.00
30174;DHT22;16985;50.814;8.530;2022-09-03T19:14:28;19.30;76.30
30174;DHT22;16985;50.814;8.530;2022-09-03T19:20:53;19.10;76.40
30174;DHT22;16985;50.814;8.530;2022-09-03T19:23:41;19.10;76.30
30174;DHT22;16985;50.814;8.530;2022-09-03T19:27:00;19.00;76.60
30174;DHT22;16985;50.814;8.530;2022-09-03T19:30:04;19.00;76.50
30174;DHT22;16985;50.814;8.530;2022-09-03T19:42:24;18.70;76.90
30174;DHT22;16985;50.814;8.530;2022-09-03T19:52:40;18.50;77.20
30174;DHT22;16985;50.814;8.530;2022-09-03T19:55:32;18.50;77.10
30174;DHT22;16985;50.814;8.530;2022-09-03T19:58:22;18.40;77.00
30174;DHT22;16985;50.814;8.530;2022-09-03T20:01:10;18.40;77.20
30174;DHT22;16985;50.814;8.530;2022-09-03T20:03:55;18.30;77.30
30174;DHT22;16985;50.814;8.530;2022-09-03T20:06:43;18.20;77.20
30174;DHT22;16985;50.814;8.530;2022-09-03T20:09:33;18.20;77.40
30174;DHT22;16985;50.814;8.530;2022-09-03T20:12:24;18.10;77.50
30174;DHT22;16985;50.814;8.530;2022-09-03T20:14:53;18.00;77.60
30174;DHT22;16985;50.814;8.530;2022-09-03T20:26:03;17.70;77.90
30174;DHT22;16985;50.814;8.530;2022-09-03T20:28:37;17.70;78.00
30174;DHT22;16985;50.814;8.530;2022-09-03T20:31:41;17.60;78.10
30174;DHT22;16985;50.814;8.530;2022-09-03T20:40:22;17.40;78.40
30174;DHT22;16985;50.814;8.530;2022-09-03T20:49:07;17.30;78.60
30174;DHT22;16985;50.814;8.530;2022-09-03T20:52:05;17.30;78.40
30174;DHT22;16985;50.814;8.530;2022-09-03T20:54:37;17.30;78.50
30174;DHT22;16985;50.814;8.530;2022-09-03T20:57:20;17.20;78.50
30174;DHT22;16985;50.814;8.530;2022-09-03T21:00:10;17.20;78.70
30174;DHT22;16985;50.814;8.530;2022-09-03T21:03:12;17.20;78.50
30174;DHT22;16985;50.814;8.530;2022-09-03T21:05:57;17.10;78.70
30174;DHT22;16985;50.814;8.530;2022-09-03T21:08:49;17.10;78.70
30174;DHT22;16985;50.814;8.530;2022-09-03T21:11:39;17.00;78.90
30174;DHT22;16985;50.814;8.530;2022-09-03T21:17:23;16.90;79.00
30174;DHT22;16985;50.814;8.530;2022-09-03T21:25:29;16.70;79.50
30174;DHT22;16985;50.814;8.530;2022-09-03T21:28:05;16.70;79.70
30174;DHT22;16985;50.814;8.530;2022-09-03T21:30:40;16.60;79.80
30174;DHT22;16985;50.814;8.530;2022-09-03T21:33:15;16.50;80.00
30174;DHT22;16985;50.814;8.530;2022-09-03T21:36:11;16.50;80.20
30174;DHT22;16985;50.814;8.530;2022-09-03T21:39:09;16.40;80.40
30174;DHT22;16985;50.814;8.530;2022-09-03T21:41:45;16.30;80.60
30174;DHT22;16985;50.814;8.530;2022-09-03T21:47:16;16.30;81.20
30174;DHT22;16985;50.814;8.530;2022-09-03T21:50:09;16.20;81.10
30174;DHT22;16985;50.814;8.530;2022-09-03T21:52:59;16.20;81.40
30174;DHT22;16985;50.814;8.530;2022-09-03T22:01:13;16.00;81.70